sensor_id;sensor_type;location;lat;lon;timestamp;P1;durP1;ratioP1;P2;durP2;ratioP2
50549;SDS011;36505;52.512;13.460;2023-04-15T00:01:23;27.15;;;16.70;;
50549;SDS011;36505;52.512;13.460;2023-04-15T00:03:53;28.95;;;17.95;;
50549;SDS011;36505;52.512;13.460;2023-04-15T00:06:22;31.52;;;17.20;;
50549;SDS011;36505;52.512;13.460;2023-04-15T00:08:48;35.10;;;18.17;;
50549;SDS011;36505;52.512;13.460;2023-04-15T00:11:14;28.50;;;17.83;;
50549;SDS011;36505;52.512;13.460;2023-04-15T00:13:40;28.95;;;17.50;;
50549;SDS011;36505;52.512;13.460;2023-04-15T00:16:07;26.60;;;17.30;;
50549;SDS011;36505;52.512;13.460;2023-04-15T00:18:33;29.55;;;18.45;;
50549;SDS011;36505;52.512;13.460;2023-04-15T00:20:59;32.55;;;18.50;;
50549;SDS011;36505;52.512;13.460;2023-04-15T00:23:25;31.63;;;19.33;;
50549;SDS011;36505;52.512;13.460;2023-04-15T00:25:50;32.05;;;19.25;;
50549;SDS011;36505;52.512;13.460;2023-04-15T00:28:16;31.95;;;20.35;;
50549;SDS011;36505;52.512;13.460;2023-04-15T00:30:42;30.55;;;19.08;;
50549;SDS011;36505;52.512;13.460;2023-04-15T00:33:08;32.08;;;19.33;;
50549;SDS011;36505;52.512;13.460;2023-04-15T00:35:33;33.03;;;18.75;;
50549;SDS011;36505;52.512;13.460;2023-04-15T00:38:01;34.88;;;20.73;;
50549;SDS011;36505;52.512;13.460;2023-04-15T00:40:27;37.63;;;20.50;;
50549;SDS011;36505;52.512;13.460;2023-04-15T00:42:52;31.60;;;19.08;;
50549;SDS011;36505;52.512;13.460;2023-04-15T00:45:18;34.45;;;20.40;;
50549;SDS011;36505;52.512;13.460;2023-04-15T00:47:44;32.72;;;19.08;;
50549;SDS011;36505;52.512;13.460;2023-04-15T00:50:10;35.92;;;20.88;;
50549;SDS011;36505;52.512;13.460;2023-04-15T00:52:36;34.20;;;20.58;;
50549;SDS011;36505;52.512;13.460;2023-04-15T00:55:03;38.60;;;22.75;;
50549;SDS011;36505;52.512;13.460;2023-04-15T00:57:29;42.92;;;20.42;;
50549;SDS011;36505;52.512;13.460;2023-04-15T00:59:55;37.30;;;20.70;;
50549;SDS011;36505;52.512;13.460;2023-04-15T01:02:21;36.55;;;21.42;;
50549;SDS011;36505;52.512;13.460;2023-04-15T01:04:47;38.15;;;22.42;;
50549;SDS011;36505;52.512;13.460;2023-04-15T01:07:13;38.80;;;21.10;;
50549;SDS011;36505;52.512;13.460;2023-04-15T01:09:39;36.78;;;21.02;;
50549;SDS011;36505;52.512;13.460;2023-04-15T01:12:05;39.70;;;22.10;;
50549;SDS011;36505;52.512;13.460;2023-04-15T01:14:32;43.50;;;22.45;;
50549;SDS011;36505;52.512;13.460;2023-04-15T01:16:58;42.05;;;22.75;;
50549;SDS011;36505;52.512;13.460;2023-04-15T01:19:23;42.28;;;22.30;;
50549;SDS011;36505;52.512;13.460;2023-04-15T01:21:50;41.97;;;22.00;;
50549;SDS011;36505;52.512;13.460;2023-04-15T01:24:16;45.75;;;24.10;;
50549;SDS011;36505;52.512;13.460;2023-04-15T01:26:43;40.53;;;22.65;;
50549;SDS011;36505;52.512;13.460;2023-04-15T01:29:09;42.78;;;22.55;;
50549;SDS011;36505;52.512;13.460;2023-04-15T01:31:34;47.58;;;23.48;;
50549;SDS011;36505;52.512;13.460;2023-04-15T01:34:00;43.22;;;23.17;;
50549;SDS011;36505;52.512;13.460;2023-04-15T01:36:26;43.50;;;23.42;;
50549;SDS011;36505;52.512;13.460;2023-04-15T01:38:52;44.70;;;23.58;;
50549;SDS011;36505;52.512;13.460;2023-04-15T01:41:25;41.20;;;24.08;;
50549;SDS011;36505;52.512;13.460;2023-04-15T01:43:51;42.72;;;24.02;;
50549;SDS011;36505;52.512;13.460;2023-04-15T01:46:17;48.90;;;23.83;;
50549;SDS011;36505;52.512;13.460;2023-04-15T01:48:42;48.60;;;25.00;;
50549;SDS011;36505;52.512;13.460;2023-04-15T01:51:08;46.97;;;24.13;;
50549;SDS011;36505;52.512;13.460;2023-04-15T01:53:33;48.85;;;23.50;;
50549;SDS011;36505;52.512;13.460;2023-04-15T01:55:58;42.03;;;23.33;;
50549;SDS011;36505;52.512;13.460;2023-04-15T01:58:24;48.05;;;23.98;;
50549;SDS011;36505;52.512;13.460;2023-04-15T02:00:50;43.80;;;23.90;;
50549;SDS011;36505;52.512;13.460;2023-04-15T02:03:15;47.28;;;24.95;;
50549;SDS011;36505;52.512;13.460;2023-04-15T02:05:40;49.60;;;25.77;;
50549;SDS011;36505;52.512;13.460;2023-04-15T02:08:06;50.97;;;23.55;;
50549;SDS011;36505;52.512;13.460;2023-04-15T02:10:32;42.60;;;22.55;;
50549;SDS011;36505;52.512;13.460;2023-04-15T02:12:57;47.03;;;22.92;;
50549;SDS011;36505;52.512;13.460;2023-04-15T02:15:22;45.33;;;24.15;;
50549;SDS011;36505;52.512;13.460;2023-04-15T02:17:48;51.30;;;25.67;;
50549;SDS011;36505;52.512;13.460;2023-04-15T02:20:17;42.13;;;23.38;;
50549;SDS011;36505;52.512;13.460;2023-04-15T02:22:43;50.40;;;23.98;;
50549;SDS011;36505;52.512;13.460;2023-04-15T02:25:08;50.78;;;26.38;;
50549;SDS011;36505;52.512;13.460;2023-04-15T02:27:34;47.08;;;24.25;;
50549;SDS011;36505;52.512;13.460;2023-04-15T02:30:00;43.28;;;23.52;;
50549;SDS011;36505;52.512;13.460;2023-04-15T02:32:25;44.03;;;23.35;;
50549;SDS011;36505;52.512;13.460;2023-04-15T02:34:51;46.17;;;23.42;;
50549;SDS011;36505;52.512;13.460;2023-04-15T02:37:16;43.92;;;22.85;;
50549;SDS011;36505;52.512;13.460;2023-04-15T02:39:44;43.20;;;23.00;;
50549;SDS011;36505;52.512;13.460;2023-04-15T02:42:09;43.83;;;23.17;;
50549;SDS011;36505;52.512;13.460;2023-04-15T02:44:35;43.55;;;23.25;;
50549;SDS011;36505;52.512;13.460;2023-04-15T02:47:00;43.03;;;22.42;;
50549;SDS011;36505;52.512;13.460;2023-04-15T02:49:27;46.60;;;24.33;;
50549;SDS011;36505;52.512;13.460;2023-04-15T02:51:54;39.63;;;21.20;;
50549;SDS011;36505;52.512;13.460;2023-04-15T02:54:22;44.03;;;22.67;;
50549;SDS011;36505;52.512;13.460;2023-04-15T02:56:50;41.15;;;22.95;;
50549;SDS011;36505;52.512;13.460;2023-04-15T02:59:19;43.38;;;22.30;;
50549;SDS011;36505;52.512;13.460;2023-04-15T03:01:44;43.65;;;22.55;;
50549;SDS011;36505;52.512;13.460;2023-04-15T03:04:10;39.67;;;21.95;;
50549;SDS011;36505;52.512;13.460;2023-04-15T03:06:35;47.35;;;23.00;;
50549;SDS011;36505;52.512;13.460;2023-04-15T03:09:01;42.20;;;21.52;;
50549;SDS011;36505;52.512;13.460;2023-04-15T03:11:30;45.20;;;22.40;;
50549;SDS011;36505;52.512;13.460;2023-04-15T03:13:57;46.63;;;21.95;;
50549;SDS011;36505;52.512;13.460;2023-04-15T03:16:23;39.30;;;22.15;;
50549;SDS011;36505;52.512;13.460;2023-04-15T03:18:49;42.50;;;21.55;;
50549;SDS011;36505;52.512;13.460;2023-04-15T03:21:14;43.97;;;22.20;;
50549;SDS011;36505;52.512;13.460;2023-04-15T03:23:40;37.97;;;21.65;;
50549;SDS011;36505;52.512;13.460;2023-04-15T03:26:05;37.38;;;20.60;;
50549;SDS011;36505;52.512;13.460;2023-04-15T03:28:30;37.40;;;20.88;;
50549;SDS011;36505;52.512;13.460;2023-04-15T03:30:56;40.30;;;21.67;;
50549;SDS011;36505;52.512;13.460;2023-04-15T03:33:22;35.75;;;20.27;;
50549;SDS011;36505;52.512;13.460;2023-04-15T03:35:49;39.53;;;21.00;;
50549;SDS011;36505;52.512;13.460;2023-04-15T03:38:15;36.40;;;20.98;;
50549;SDS011;36505;52.512;13.460;2023-04-15T03:40:40;39.58;;;21.85;;
50549;SDS011;36505;52.512;13.460;2023-04-15T03:43:06;42.53;;;21.25;;
50549;SDS011;36505;52.512;13.460;2023-04-15T03:45:31;38.65;;;20.13;;
50549;SDS011;36505;52.512;13.460;2023-04-15T03:47:57;39.13;;;20.98;;
50549;SDS011;36505;52.512;13.460;2023-04-15T03:50:22;36.92;;;20.35;;
50549;SDS011;36505;52.512;13.460;2023-04-15T03:52:47;37.35;;;20.65;;
50549;SDS011;36505;52.512;13.460;2023-04-15T03:55:13;40.05;;;21.67;;
50549;SDS011;36505;52.512;13.460;2023-04-15T03:57:39;42.50;;;23.48;;
50549;SDS011;36505;52.512;13.460;2023-04-15T04:00:05;34.03;;;19.02;;
50549;SDS011;36505;52.512;13.460;2023-04-15T04:02:31;36.70;;;20.58;;
50549;SDS011;36505;52.512;13.460;2023-04-15T04:04:56;38.47;;;21.00;;
50549;SDS011;36505;52.512;13.460;2023-04-15T04:07:22;35.28;;;19.63;;
50549;SDS011;36505;52.512;13.460;2023-04-15T04:09:48;37.08;;;19.30;;
50549;SDS011;36505;52.512;13.460;2023-04-15T04:12:13;35.03;;;19.02;;
50549;SDS011;36505;52.512;13.460;2023-04-15T04:14:39;34.38;;;18.83;;
50549;SDS011;36505;52.512;13.460;2023-04-15T04:17:04;31.80;;;17.98;;
50549;SDS011;36505;52.512;13.460;2023-04-15T04:19:30;32.22;;;18.60;;
50549;SDS011;36505;52.512;13.460;2023-04-15T04:21:55;32.53;;;18.88;;
50549;SDS011;36505;52.512;13.460;2023-04-15T04:24:21;31.60;;;18.33;;
50549;SDS011;36505;52.512;13.460;2023-04-15T04:26:46;34.58;;;17.63;;
50549;SDS011;36505;52.512;13.460;2023-04-15T04:29:12;35.13;;;18.73;;
50549;SDS011;36505;52.512;13.460;2023-04-15T04:31:37;37.88;;;18.65;;
50549;SDS011;36505;52.512;13.460;2023-04-15T04:34:03;29.55;;;17.27;;
50549;SDS011;36505;52.512;13.460;2023-04-15T04:36:28;32.40;;;18.30;;
50549;SDS011;36505;52.512;13.460;2023-04-15T04:38:54;33.38;;;17.70;;
50549;SDS011;36505;52.512;13.460;2023-04-15T04:41:19;34.25;;;17.30;;
50549;SDS011;36505;52.512;13.460;2023-04-15T04:43:45;32.72;;;18.63;;
50549;SDS011;36505;52.512;13.460;2023-04-15T04:46:10;32.83;;;17.65;;
50549;SDS011;36505;52.512;13.460;2023-04-15T04:48:36;30.15;;;16.85;;
50549;SDS011;36505;52.512;13.460;2023-04-15T04:51:02;32.40;;;18.13;;
50549;SDS011;36505;52.512;13.460;2023-04-15T04:53:27;29.17;;;17.65;;
50549;SDS011;36505;52.512;13.460;2023-04-15T04:55:53;28.98;;;17.30;;
50549;SDS011;36505;52.512;13.460;2023-04-15T04:58:18;30.02;;;16.90;;
50549;SDS011;36505;52.512;13.460;2023-04-15T05:00:44;29.33;;;17.40;;
50549;SDS011;36505;52.512;13.460;2023-04-15T05:03:09;35.70;;;18.00;;
50549;SDS011;36505;52.512;13.460;2023-04-15T05:05:35;29.85;;;16.88;;
50549;SDS011;36505;52.512;13.460;2023-04-15T05:08:03;26.30;;;15.52;;
50549;SDS011;36505;52.512;13.460;2023-04-15T05:10:29;28.35;;;15.07;;
50549;SDS011;36505;52.512;13.460;2023-04-15T05:12:55;24.67;;;15.65;;
50549;SDS011;36505;52.512;13.460;2023-04-15T05:15:20;30.98;;;14.93;;
50549;SDS011;36505;52.512;13.460;2023-04-15T05:17:56;23.98;;;13.88;;
50549;SDS011;36505;52.512;13.460;2023-04-15T05:20:22;26.63;;;14.07;;
50549;SDS011;36505;52.512;13.460;2023-04-15T05:22:47;24.55;;;15.20;;
50549;SDS011;36505;52.512;13.460;2023-04-15T05:25:13;25.67;;;14.50;;
50549;SDS011;36505;52.512;13.460;2023-04-15T05:27:38;31.67;;;16.08;;
50549;SDS011;36505;52.512;13.460;2023-04-15T05:30:03;23.08;;;14.30;;
50549;SDS011;36505;52.512;13.460;2023-04-15T05:32:29;20.33;;;13.48;;
50549;SDS011;36505;52.512;13.460;2023-04-15T05:34:55;26.80;;;13.63;;
50549;SDS011;36505;52.512;13.460;2023-04-15T05:37:20;24.75;;;14.48;;
50549;SDS011;36505;52.512;13.460;2023-04-15T05:39:46;23.83;;;13.32;;
50549;SDS011;36505;52.512;13.460;2023-04-15T05:42:12;23.30;;;13.65;;
50549;SDS011;36505;52.512;13.460;2023-04-15T05:44:37;23.58;;;12.88;;
50549;SDS011;36505;52.512;13.460;2023-04-15T05:47:03;22.95;;;14.15;;
50549;SDS011;36505;52.512;13.460;2023-04-15T05:49:29;25.10;;;15.07;;
50549;SDS011;36505;52.512;13.460;2023-04-15T05:51:55;22.33;;;13.02;;
50549;SDS011;36505;52.512;13.460;2023-04-15T05:54:20;25.65;;;13.88;;
50549;SDS011;36505;52.512;13.460;2023-04-15T05:56:47;20.92;;;12.63;;
50549;SDS011;36505;52.512;13.460;2023-04-15T05:59:12;21.23;;;13.48;;
50549;SDS011;36505;52.512;13.460;2023-04-15T06:01:38;21.92;;;12.98;;
50549;SDS011;36505;52.512;13.460;2023-04-15T06:04:04;23.67;;;13.38;;
50549;SDS011;36505;52.512;13.460;2023-04-15T06:06:29;27.25;;;13.43;;
50549;SDS011;36505;52.512;13.460;2023-04-15T06:08:56;20.90;;;13.18;;
50549;SDS011;36505;52.512;13.460;2023-04-15T06:11:22;18.92;;;11.23;;
50549;SDS011;36505;52.512;13.460;2023-04-15T06:13:47;21.60;;;12.55;;
50549;SDS011;36505;52.512;13.460;2023-04-15T06:16:13;20.23;;;12.15;;
50549;SDS011;36505;52.512;13.460;2023-04-15T06:18:38;22.67;;;12.00;;
50549;SDS011;36505;52.512;13.460;2023-04-15T06:21:04;21.77;;;12.75;;
50549;SDS011;36505;52.512;13.460;2023-04-15T06:23:29;22.25;;;13.05;;
50549;SDS011;36505;52.512;13.460;2023-04-15T06:25:55;20.73;;;12.10;;
50549;SDS011;36505;52.512;13.460;2023-04-15T06:28:21;19.25;;;11.77;;
50549;SDS011;36505;52.512;13.460;2023-04-15T06:30:46;17.88;;;12.15;;
50549;SDS011;36505;52.512;13.460;2023-04-15T06:33:11;22.15;;;12.73;;
50549;SDS011;36505;52.512;13.460;2023-04-15T06:35:37;21.70;;;12.38;;
50549;SDS011;36505;52.512;13.460;2023-04-15T06:38:03;18.13;;;12.27;;
50549;SDS011;36505;52.512;13.460;2023-04-15T06:40:28;19.98;;;10.85;;
50549;SDS011;36505;52.512;13.460;2023-04-15T06:42:54;19.15;;;10.98;;
50549;SDS011;36505;52.512;13.460;2023-04-15T06:45:19;25.88;;;11.70;;
50549;SDS011;36505;52.512;13.460;2023-04-15T06:47:44;19.70;;;11.65;;
50549;SDS011;36505;52.512;13.460;2023-04-15T06:50:10;16.55;;;11.77;;
50549;SDS011;36505;52.512;13.460;2023-04-15T06:52:36;20.73;;;11.00;;
50549;SDS011;36505;52.512;13.460;2023-04-15T06:55:02;17.70;;;10.63;;
50549;SDS011;36505;52.512;13.460;2023-04-15T06:57:27;18.70;;;10.27;;
50549;SDS011;36505;52.512;13.460;2023-04-15T06:59:53;17.13;;;9.82;;
50549;SDS011;36505;52.512;13.460;2023-04-15T07:02:19;17.05;;;9.93;;
50549;SDS011;36505;52.512;13.460;2023-04-15T07:04:44;15.57;;;10.27;;
50549;SDS011;36505;52.512;13.460;2023-04-15T07:07:10;15.43;;;9.23;;
50549;SDS011;36505;52.512;13.460;2023-04-15T07:09:36;15.02;;;9.15;;
50549;SDS011;36505;52.512;13.460;2023-04-15T07:12:01;14.35;;;9.20;;
50549;SDS011;36505;52.512;13.460;2023-04-15T07:14:27;13.30;;;9.02;;
50549;SDS011;36505;52.512;13.460;2023-04-15T07:16:53;19.45;;;9.45;;
50549;SDS011;36505;52.512;13.460;2023-04-15T07:19:18;12.85;;;9.00;;
50549;SDS011;36505;52.512;13.460;2023-04-15T07:21:44;13.68;;;9.52;;
50549;SDS011;36505;52.512;13.460;2023-04-15T07:24:09;14.40;;;8.98;;
50549;SDS011;36505;52.512;13.460;2023-04-15T07:26:35;15.00;;;9.85;;
50549;SDS011;36505;52.512;13.460;2023-04-15T07:29:00;15.13;;;10.18;;
50549;SDS011;36505;52.512;13.460;2023-04-15T07:31:25;15.07;;;9.10;;
50549;SDS011;36505;52.512;13.460;2023-04-15T07:33:51;15.30;;;9.68;;
50549;SDS011;36505;52.512;13.460;2023-04-15T07:36:17;15.95;;;11.25;;
50549;SDS011;36505;52.512;13.460;2023-04-15T07:38:42;16.80;;;10.05;;
50549;SDS011;36505;52.512;13.460;2023-04-15T07:41:08;17.13;;;9.52;;
50549;SDS011;36505;52.512;13.460;2023-04-15T07:43:34;16.60;;;9.90;;
50549;SDS011;36505;52.512;13.460;2023-04-15T07:45:59;13.20;;;9.77;;
50549;SDS011;36505;52.512;13.460;2023-04-15T07:48:25;14.05;;;10.05;;
50549;SDS011;36505;52.512;13.460;2023-04-15T07:50:51;15.90;;;10.43;;
50549;SDS011;36505;52.512;13.460;2023-04-15T07:53:16;19.67;;;11.07;;
50549;SDS011;36505;52.512;13.460;2023-04-15T07:55:42;18.27;;;11.25;;
50549;SDS011;36505;52.512;13.460;2023-04-15T07:58:07;19.63;;;11.95;;
50549;SDS011;36505;52.512;13.460;2023-04-15T08:00:33;16.58;;;10.90;;
50549;SDS011;36505;52.512;13.460;2023-04-15T08:02:58;19.77;;;10.82;;
50549;SDS011;36505;52.512;13.460;2023-04-15T08:05:24;15.68;;;11.27;;
50549;SDS011;36505;52.512;13.460;2023-04-15T08:07:50;19.35;;;12.07;;
50549;SDS011;36505;52.512;13.460;2023-04-15T08:10:16;15.70;;;10.73;;
50549;SDS011;36505;52.512;13.460;2023-04-15T08:12:41;17.35;;;11.15;;
50549;SDS011;36505;52.512;13.460;2023-04-15T08:15:07;18.17;;;12.20;;
50549;SDS011;36505;52.512;13.460;2023-04-15T08:17:33;16.25;;;11.30;;
50549;SDS011;36505;52.512;13.460;2023-04-15T08:19:58;20.08;;;11.63;;
50549;SDS011;36505;52.512;13.460;2023-04-15T08:22:24;18.98;;;12.32;;
50549;SDS011;36505;52.512;13.460;2023-04-15T08:24:49;18.90;;;11.73;;
50549;SDS011;36505;52.512;13.460;2023-04-15T08:27:15;16.40;;;10.60;;
50549;SDS011;36505;52.512;13.460;2023-04-15T08:29:41;17.83;;;10.88;;
50549;SDS011;36505;52.512;13.460;2023-04-15T08:32:06;22.27;;;11.73;;
50549;SDS011;36505;52.512;13.460;2023-04-15T08:34:33;17.35;;;12.00;;
50549;SDS011;36505;52.512;13.460;2023-04-15T08:36:59;19.75;;;11.88;;
50549;SDS011;36505;52.512;13.460;2023-04-15T08:39:24;15.23;;;10.90;;
50549;SDS011;36505;52.512;13.460;2023-04-15T08:42:02;19.65;;;12.25;;
50549;SDS011;36505;52.512;13.460;2023-04-15T08:44:34;19.25;;;11.95;;
50549;SDS011;36505;52.512;13.460;2023-04-15T08:47:03;18.38;;;11.55;;
50549;SDS011;36505;52.512;13.460;2023-04-15T08:49:32;21.70;;;12.52;;
50549;SDS011;36505;52.512;13.460;2023-04-15T08:52:03;18.77;;;12.23;;
50549;SDS011;36505;52.512;13.460;2023-04-15T08:54:28;18.88;;;12.45;;
50549;SDS011;36505;52.512;13.460;2023-04-15T08:56:54;17.15;;;11.98;;
50549;SDS011;36505;52.512;13.460;2023-04-15T08:59:22;17.35;;;11.75;;
50549;SDS011;36505;52.512;13.460;2023-04-15T09:01:51;18.30;;;12.38;;
50549;SDS011;36505;52.512;13.460;2023-04-15T09:04:17;19.30;;;12.07;;
50549;SDS011;36505;52.512;13.460;2023-04-15T09:06:43;18.52;;;12.82;;
50549;SDS011;36505;52.512;13.460;2023-04-15T09:09:08;15.48;;;10.40;;
50549;SDS011;36505;52.512;13.460;2023-04-15T09:11:34;19.35;;;11.45;;
50549;SDS011;36505;52.512;13.460;2023-04-15T09:14:00;16.17;;;11.23;;
50549;SDS011;36505;52.512;13.460;2023-04-15T09:16:26;21.25;;;13.15;;
50549;SDS011;36505;52.512;13.460;2023-04-15T09:18:52;17.73;;;11.93;;
50549;SDS011;36505;52.512;13.460;2023-04-15T09:21:17;19.05;;;12.75;;
50549;SDS011;36505;52.512;13.460;2023-04-15T09:23:53;16.70;;;11.63;;
50549;SDS011;36505;52.512;13.460;2023-04-15T09:26:55;14.45;;;10.70;;
50549;SDS011;36505;52.512;13.460;2023-04-15T09:29:18;16.58;;;11.68;;
50549;SDS011;36505;52.512;13.460;2023-04-15T09:31:44;18.15;;;11.77;;
50549;SDS011;36505;52.512;13.460;2023-04-15T09:34:10;17.60;;;12.88;;
50549;SDS011;36505;52.512;13.460;2023-04-15T09:39:10;18.67;;;11.25;;
50549;SDS011;36505;52.512;13.460;2023-04-15T09:41:35;16.05;;;11.13;;
50549;SDS011;36505;52.512;13.460;2023-04-15T09:44:01;18.15;;;11.57;;
50549;SDS011;36505;52.512;13.460;2023-04-15T09:49:10;15.10;;;10.32;;
50549;SDS011;36505;52.512;13.460;2023-04-15T09:51:37;16.33;;;10.82;;
50549;SDS011;36505;52.512;13.460;2023-04-15T09:54:03;18.23;;;11.15;;
50549;SDS011;36505;52.512;13.460;2023-04-15T09:56:35;19.35;;;13.02;;
50549;SDS011;36505;52.512;13.460;2023-04-15T09:59:03;16.75;;;10.80;;
50549;SDS011;36505;52.512;13.460;2023-04-15T10:01:29;15.75;;;10.60;;
50549;SDS011;36505;52.512;13.460;2023-04-15T10:03:55;19.42;;;11.23;;
50549;SDS011;36505;52.512;13.460;2023-04-15T10:06:25;15.68;;;10.02;;
50549;SDS011;36505;52.512;13.460;2023-04-15T10:08:51;16.40;;;10.35;;
50549;SDS011;36505;52.512;13.460;2023-04-15T10:11:18;20.95;;;11.07;;
50549;SDS011;36505;52.512;13.460;2023-04-15T10:13:45;16.63;;;11.20;;
50549;SDS011;36505;52.512;13.460;2023-04-15T10:16:13;18.02;;;11.13;;
50549;SDS011;36505;52.512;13.460;2023-04-15T10:18:44;17.52;;;11.57;;
50549;SDS011;36505;52.512;13.460;2023-04-15T10:21:10;15.63;;;11.10;;
50549;SDS011;36505;52.512;13.460;2023-04-15T10:23:38;18.42;;;11.18;;
50549;SDS011;36505;52.512;13.460;2023-04-15T10:26:04;16.73;;;11.45;;
50549;SDS011;36505;52.512;13.460;2023-04-15T10:28:30;18.35;;;11.57;;
50549;SDS011;36505;52.512;13.460;2023-04-15T10:30:56;17.65;;;10.63;;
50549;SDS011;36505;52.512;13.460;2023-04-15T10:33:23;16.10;;;11.88;;
50549;SDS011;36505;52.512;13.460;2023-04-15T10:35:49;13.98;;;10.40;;
50549;SDS011;36505;52.512;13.460;2023-04-15T10:44:19;18.23;;;9.68;;
50549;SDS011;36505;52.512;13.460;2023-04-15T10:46:46;15.57;;;10.63;;
50549;SDS011;36505;52.512;13.460;2023-04-15T10:49:12;14.20;;;10.10;;
50549;SDS011;36505;52.512;13.460;2023-04-15T10:51:39;16.35;;;10.52;;
50549;SDS011;36505;52.512;13.460;2023-04-15T10:54:17;15.23;;;9.30;;
50549;SDS011;36505;52.512;13.460;2023-04-15T10:59:25;14.82;;;9.80;;
50549;SDS011;36505;52.512;13.460;2023-04-15T11:02:04;15.73;;;9.13;;
50549;SDS011;36505;52.512;13.460;2023-04-15T11:07:32;16.08;;;8.95;;
50549;SDS011;36505;52.512;13.460;2023-04-15T11:12:55;17.02;;;9.93;;
50549;SDS011;36505;52.512;13.460;2023-04-15T11:20:50;15.25;;;10.00;;
50549;SDS011;36505;52.512;13.460;2023-04-15T11:26:02;14.55;;;10.23;;
50549;SDS011;36505;52.512;13.460;2023-04-15T11:28:33;16.45;;;10.10;;
50549;SDS011;36505;52.512;13.460;2023-04-15T11:31:13;18.73;;;10.30;;
50549;SDS011;36505;52.512;13.460;2023-04-15T11:33:44;14.18;;;9.43;;
50549;SDS011;36505;52.512;13.460;2023-04-15T11:36:10;15.68;;;10.43;;
50549;SDS011;36505;52.512;13.460;2023-04-15T11:38:35;15.98;;;10.45;;
50549;SDS011;36505;52.512;13.460;2023-04-15T11:41:02;15.88;;;10.07;;
50549;SDS011;36505;52.512;13.460;2023-04-15T11:43:27;13.43;;;8.80;;
50549;SDS011;36505;52.512;13.460;2023-04-15T11:45:57;18.08;;;11.90;;
50549;SDS011;36505;52.512;13.460;2023-04-15T11:48:25;14.80;;;10.20;;
50549;SDS011;36505;52.512;13.460;2023-04-15T11:50:56;15.32;;;10.07;;
50549;SDS011;36505;52.512;13.460;2023-04-15T11:53:23;12.65;;;8.93;;
50549;SDS011;36505;52.512;13.460;2023-04-15T11:55:59;16.88;;;10.07;;
50549;SDS011;36505;52.512;13.460;2023-04-15T11:58:25;14.57;;;9.68;;
50549;SDS011;36505;52.512;13.460;2023-04-15T12:00:56;15.27;;;10.50;;
50549;SDS011;36505;52.512;13.460;2023-04-15T12:08:49;12.07;;;9.13;;
50549;SDS011;36505;52.512;13.460;2023-04-15T12:14:32;13.30;;;9.37;;
50549;SDS011;36505;52.512;13.460;2023-04-15T12:17:02;13.70;;;9.45;;
50549;SDS011;36505;52.512;13.460;2023-04-15T12:19:30;19.63;;;10.30;;
50549;SDS011;36505;52.512;13.460;2023-04-15T12:22:04;14.10;;;9.32;;
50549;SDS011;36505;52.512;13.460;2023-04-15T12:24:33;12.75;;;8.60;;
50549;SDS011;36505;52.512;13.460;2023-04-15T12:27:10;17.58;;;8.80;;
50549;SDS011;36505;52.512;13.460;2023-04-15T12:29:37;13.85;;;9.77;;
50549;SDS011;36505;52.512;13.460;2023-04-15T12:34:33;11.35;;;7.95;;
50549;SDS011;36505;52.512;13.460;2023-04-15T12:37:03;11.73;;;8.18;;
50549;SDS011;36505;52.512;13.460;2023-04-15T12:39:33;12.43;;;9.15;;
50549;SDS011;36505;52.512;13.460;2023-04-15T12:42:03;12.82;;;9.00;;
50549;SDS011;36505;52.512;13.460;2023-04-15T12:44:30;12.65;;;7.68;;
50549;SDS011;36505;52.512;13.460;2023-04-15T12:46:56;11.25;;;7.93;;
50549;SDS011;36505;52.512;13.460;2023-04-15T12:49:21;11.23;;;7.43;;
50549;SDS011;36505;52.512;13.460;2023-04-15T12:51:48;11.45;;;8.05;;
50549;SDS011;36505;52.512;13.460;2023-04-15T12:54:15;9.60;;;6.43;;
50549;SDS011;36505;52.512;13.460;2023-04-15T12:56:41;9.00;;;7.20;;
50549;SDS011;36505;52.512;13.460;2023-04-15T12:59:06;11.13;;;7.50;;
50549;SDS011;36505;52.512;13.460;2023-04-15T13:01:32;11.82;;;8.60;;
50549;SDS011;36505;52.512;13.460;2023-04-15T13:03:57;10.80;;;7.57;;
50549;SDS011;36505;52.512;13.460;2023-04-15T13:06:22;11.93;;;8.57;;
50549;SDS011;36505;52.512;13.460;2023-04-15T13:08:48;12.77;;;8.70;;
50549;SDS011;36505;52.512;13.460;2023-04-15T13:11:14;11.80;;;8.05;;
50549;SDS011;36505;52.512;13.460;2023-04-15T13:13:41;11.20;;;7.93;;
50549;SDS011;36505;52.512;13.460;2023-04-15T13:16:06;11.55;;;7.85;;
50549;SDS011;36505;52.512;13.460;2023-04-15T13:18:32;10.40;;;7.05;;
50549;SDS011;36505;52.512;13.460;2023-04-15T13:20:58;10.50;;;7.38;;
50549;SDS011;36505;52.512;13.460;2023-04-15T13:23:24;11.95;;;7.80;;
50549;SDS011;36505;52.512;13.460;2023-04-15T13:25:50;11.27;;;7.75;;
50549;SDS011;36505;52.512;13.460;2023-04-15T13:28:16;11.95;;;7.50;;
50549;SDS011;36505;52.512;13.460;2023-04-15T13:30:41;10.18;;;6.63;;
50549;SDS011;36505;52.512;13.460;2023-04-15T13:33:08;8.68;;;5.82;;
50549;SDS011;36505;52.512;13.460;2023-04-15T13:35:33;9.32;;;7.07;;
50549;SDS011;36505;52.512;13.460;2023-04-15T13:37:59;11.13;;;6.80;;
50549;SDS011;36505;52.512;13.460;2023-04-15T13:40:25;8.88;;;6.38;;
50549;SDS011;36505;52.512;13.460;2023-04-15T13:42:50;10.63;;;6.63;;
50549;SDS011;36505;52.512;13.460;2023-04-15T13:45:17;10.50;;;7.38;;
50549;SDS011;36505;52.512;13.460;2023-04-15T13:47:42;10.38;;;6.90;;
50549;SDS011;36505;52.512;13.460;2023-04-15T13:50:08;12.85;;;7.70;;
50549;SDS011;36505;52.512;13.460;2023-04-15T13:52:34;10.10;;;7.57;;
50549;SDS011;36505;52.512;13.460;2023-04-15T13:54:59;10.85;;;6.78;;
50549;SDS011;36505;52.512;13.460;2023-04-15T13:57:25;11.30;;;7.38;;
50549;SDS011;36505;52.512;13.460;2023-04-15T13:59:50;9.70;;;6.75;;
50549;SDS011;36505;52.512;13.460;2023-04-15T14:02:16;8.57;;;5.40;;
50549;SDS011;36505;52.512;13.460;2023-04-15T14:04:41;7.65;;;5.38;;
50549;SDS011;36505;52.512;13.460;2023-04-15T14:07:07;8.48;;;6.40;;
50549;SDS011;36505;52.512;13.460;2023-04-15T14:09:32;10.23;;;6.47;;
50549;SDS011;36505;52.512;13.460;2023-04-15T14:11:59;8.57;;;6.13;;
50549;SDS011;36505;52.512;13.460;2023-04-15T14:14:25;9.43;;;6.40;;
50549;SDS011;36505;52.512;13.460;2023-04-15T14:16:51;12.48;;;8.15;;
50549;SDS011;36505;52.512;13.460;2023-04-15T14:19:16;7.80;;;5.32;;
50549;SDS011;36505;52.512;13.460;2023-04-15T14:21:41;9.98;;;5.65;;
50549;SDS011;36505;52.512;13.460;2023-04-15T14:24:07;8.75;;;5.75;;
50549;SDS011;36505;52.512;13.460;2023-04-15T14:26:32;6.75;;;5.40;;
50549;SDS011;36505;52.512;13.460;2023-04-15T14:28:58;10.52;;;6.18;;
50549;SDS011;36505;52.512;13.460;2023-04-15T14:31:24;9.23;;;5.95;;
50549;SDS011;36505;52.512;13.460;2023-04-15T14:33:49;8.27;;;5.65;;
50549;SDS011;36505;52.512;13.460;2023-04-15T14:36:15;8.50;;;5.85;;
50549;SDS011;36505;52.512;13.460;2023-04-15T14:38:40;9.60;;;7.00;;
50549;SDS011;36505;52.512;13.460;2023-04-15T14:41:06;12.98;;;9.52;;
50549;SDS011;36505;52.512;13.460;2023-04-15T14:43:32;11.13;;;7.70;;
50549;SDS011;36505;52.512;13.460;2023-04-15T14:45:58;7.65;;;6.15;;
50549;SDS011;36505;52.512;13.460;2023-04-15T14:48:24;10.27;;;7.57;;